createdAt,value
2019-01-08T00:02:04.805Z,7.13
2019-01-08T00:04:31.715Z,6.53
2019-01-08T00:06:58.476Z,7.10
2019-01-08T00:09:25.573Z,6.83
2019-01-08T00:11:52.479Z,5.70
2019-01-08T00:14:19.279Z,5.90
2019-01-08T00:16:45.931Z,6.00
2019-01-08T00:19:12.757Z,4.97
2019-01-08T00:21:39.539Z,4.70
2019-01-08T00:24:06.280Z,3.93
2019-01-08T00:26:33.399Z,3.63
2019-01-08T00:29:00.173Z,3.50
2019-01-08T00:31:26.973Z,4.60
2019-01-08T00:36:37.883Z,3.10
2019-01-08T00:39:05.918Z,3.50
2019-01-08T00:41:33.019Z,4.40
2019-01-08T00:43:59.839Z,3.83
2019-01-08T00:46:26.595Z,3.40
2019-01-08T00:48:53.416Z,2.90
2019-01-08T00:51:20.134Z,3.23
2019-01-08T00:53:46.832Z,4.20
2019-01-08T00:56:13.547Z,3.90
2019-01-08T00:58:40.396Z,3.63
2019-01-08T01:01:07.135Z,2.37
2019-01-08T01:03:34.323Z,3.33
2019-01-08T01:06:01.143Z,2.97
2019-01-08T01:08:27.839Z,2.20
2019-01-08T01:10:54.687Z,2.40
2019-01-08T01:13:21.426Z,3.37
2019-01-08T01:15:48.150Z,2.77
2019-01-08T01:18:15.403Z,3.90
2019-01-08T01:20:42.475Z,2.70
2019-01-08T01:23:09.311Z,2.70
2019-01-08T01:25:36.014Z,2.67
2019-01-08T01:28:04.992Z,2.33
2019-01-08T01:30:31.700Z,3.10
2019-01-08T01:32:58.416Z,2.67
2019-01-08T01:35:25.152Z,2.97
2019-01-08T01:37:51.951Z,2.93
2019-01-08T01:40:18.682Z,2.93
2019-01-08T01:42:45.417Z,2.80
2019-01-08T01:45:12.299Z,2.60
2019-01-08T01:47:39.054Z,2.70
2019-01-08T01:50:05.868Z,2.63
2019-01-08T01:52:32.603Z,2.53
2019-01-08T01:54:59.359Z,2.70
2019-01-08T01:57:26.116Z,2.87
2019-01-08T01:59:52.817Z,2.60
2019-01-08T02:02:19.545Z,2.90
2019-01-08T02:04:48.206Z,2.67
2019-01-08T02:07:14.940Z,2.40
2019-01-08T02:09:41.640Z,2.53
2019-01-08T02:12:08.358Z,2.60
2019-01-08T02:14:35.187Z,2.37
2019-01-08T02:17:01.986Z,2.60
2019-01-08T02:19:28.728Z,1.73
2019-01-08T02:21:55.488Z,2.67
2019-01-08T02:24:22.214Z,1.77
2019-01-08T02:26:51.794Z,1.97
2019-01-08T02:29:18.577Z,2.33
2019-01-08T02:31:45.299Z,2.33
2019-01-08T02:34:12.028Z,2.00
2019-01-08T02:36:38.721Z,2.00
2019-01-08T02:39:05.905Z,1.40
2019-01-08T02:41:32.685Z,2.20
2019-01-08T02:43:59.675Z,1.77
2019-01-08T02:46:26.484Z,1.80
2019-01-08T02:48:53.199Z,2.07
2019-01-08T02:51:19.937Z,1.30
2019-01-08T02:53:46.667Z,1.53
2019-01-08T02:56:15.149Z,1.60
2019-01-08T02:58:41.902Z,1.50
2019-01-08T03:01:08.638Z,1.40
2019-01-08T03:03:35.381Z,1.40
2019-01-08T03:06:02.242Z,1.40
2019-01-08T03:08:28.953Z,1.13
2019-01-08T03:10:55.674Z,1.73
2019-01-08T03:13:23.782Z,1.50
2019-01-08T03:15:50.522Z,1.70
2019-01-08T03:18:17.242Z,1.47
2019-01-08T03:20:44.002Z,1.40
2019-01-08T03:23:10.742Z,1.57
2019-01-08T03:25:37.484Z,1.40
2019-01-08T03:28:06.581Z,1.30
2019-01-08T03:30:33.295Z,1.50
2019-01-08T03:32:59.993Z,1.43
2019-01-08T03:35:26.892Z,1.30
2019-01-08T03:37:53.590Z,1.23
2019-01-08T03:40:20.307Z,1.30
2019-01-08T03:42:47.016Z,1.33
2019-01-08T03:45:13.714Z,1.27
2019-01-08T03:47:40.440Z,1.47
2019-01-08T03:50:07.298Z,1.10
2019-01-08T03:52:34.359Z,1.37
2019-01-08T03:55:01.078Z,1.33
2019-01-08T03:57:27.910Z,1.60
2019-01-08T03:59:54.708Z,1.20
2019-01-08T04:02:21.443Z,1.60
2019-01-08T04:04:48.124Z,1.40
2019-01-08T04:07:14.849Z,1.40
2019-01-08T04:09:41.532Z,1.40
2019-01-08T04:12:09.084Z,1.40
2019-01-08T04:14:35.765Z,1.40
2019-01-08T04:17:06.101Z,1.20
2019-01-08T04:19:33.182Z,1.30
2019-01-08T04:21:59.924Z,1.13
2019-01-08T04:24:26.667Z,1.07
2019-01-08T04:26:53.439Z,1.00
2019-01-08T04:29:20.271Z,1.00
2019-01-08T04:31:47.125Z,0.83
2019-01-08T04:34:13.869Z,1.13
2019-01-08T04:36:40.998Z,1.10
2019-01-08T04:39:07.720Z,0.70
2019-01-08T04:41:34.557Z,1.00
2019-01-08T04:44:01.263Z,1.00
2019-01-08T04:46:27.992Z,1.10
2019-01-08T04:48:54.685Z,1.00
2019-01-08T04:51:21.374Z,1.20
2019-01-08T04:53:48.077Z,1.17
2019-01-08T04:56:14.801Z,1.07
2019-01-08T04:58:41.515Z,1.07
2019-01-08T05:01:08.528Z,1.07
2019-01-08T05:03:35.776Z,1.13
2019-01-08T05:06:02.620Z,1.20
2019-01-08T05:08:29.456Z,1.10
2019-01-08T05:10:56.262Z,1.00
2019-01-08T05:13:23.232Z,0.90
2019-01-08T05:15:50.883Z,1.60
2019-01-08T05:18:18.631Z,1.30
2019-01-08T05:20:47.211Z,1.70
2019-01-08T05:23:15.367Z,1.50
2019-01-08T05:25:42.112Z,1.90
2019-01-08T05:28:22.110Z,1.70
2019-01-08T05:30:49.132Z,1.80
2019-01-08T05:33:19.060Z,2.20
2019-01-08T05:35:45.863Z,1.80
2019-01-08T05:38:12.856Z,2.07
2019-01-08T05:40:39.704Z,1.97
2019-01-08T05:43:06.617Z,2.50
2019-01-08T05:45:33.327Z,2.13
2019-01-08T05:48:00.070Z,2.50
2019-01-08T05:50:26.965Z,2.70
2019-01-08T05:52:53.702Z,2.20
2019-01-08T05:55:20.445Z,2.13
2019-01-08T05:57:47.201Z,1.80
2019-01-08T06:00:16.543Z,2.10
2019-01-08T06:02:42.584Z,1.97
2019-01-08T06:05:09.559Z,2.00
2019-01-08T06:07:36.373Z,1.60
2019-01-08T06:10:04.701Z,1.80
2019-01-08T06:12:31.438Z,1.90
2019-01-08T06:14:58.436Z,1.80
2019-01-08T06:17:25.510Z,2.77
2019-01-08T06:19:52.630Z,2.80
2019-01-08T06:22:19.369Z,2.80
2019-01-08T06:24:47.628Z,3.17
2019-01-08T06:27:16.282Z,2.83
2019-01-08T06:29:43.139Z,2.87
2019-01-08T06:32:09.969Z,2.90
2019-01-08T06:34:36.806Z,3.10
2019-01-08T06:37:03.838Z,3.10
2019-01-08T06:39:30.560Z,3.30
2019-01-08T06:41:57.286Z,3.23
2019-01-08T06:44:24.006Z,3.10
2019-01-08T06:46:50.911Z,2.90
2019-01-08T06:49:17.743Z,2.10
2019-01-08T06:51:45.304Z,2.37
2019-01-08T06:54:12.083Z,2.43
2019-01-08T06:56:39.050Z,2.37
2019-01-08T06:59:08.209Z,2.80
2019-01-08T07:01:35.141Z,2.40
2019-01-08T07:04:02.224Z,2.40
2019-01-08T07:06:29.116Z,2.80
2019-01-08T07:08:59.234Z,2.87
2019-01-08T07:11:25.977Z,2.10
2019-01-08T07:13:52.701Z,2.33
2019-01-08T07:16:19.738Z,2.70
2019-01-08T07:18:46.575Z,3.13
2019-01-08T07:21:13.309Z,2.30
2019-01-08T07:23:40.082Z,3.13
2019-01-08T07:26:06.890Z,2.90
2019-01-08T07:28:33.581Z,3.03
2019-01-08T07:31:00.311Z,4.00
2019-01-08T07:33:27.067Z,2.87
2019-01-08T07:35:53.881Z,2.70
2019-01-08T07:38:20.846Z,2.70
2019-01-08T07:40:48.030Z,2.23
2019-01-08T07:43:14.901Z,1.70
2019-01-08T07:45:43.705Z,2.00
2019-01-08T07:48:10.631Z,2.43
2019-01-08T07:50:37.558Z,2.63
2019-01-08T07:53:14.005Z,1.63
2019-01-08T07:55:45.343Z,2.27
2019-01-08T07:58:15.392Z,2.03
2019-01-08T08:00:49.738Z,1.50
2019-01-08T08:03:11.201Z,2.00
2019-01-08T08:05:38.124Z,2.30
2019-01-08T08:08:05.792Z,2.10
2019-01-08T08:10:33.029Z,2.10
2019-01-08T08:12:59.825Z,2.03
2019-01-08T08:15:29.073Z,2.50
2019-01-08T08:17:57.580Z,2.23
2019-01-08T08:20:24.454Z,2.37
2019-01-08T08:22:51.216Z,2.27
2019-01-08T08:25:18.084Z,2.63
2019-01-08T08:27:44.819Z,2.97
2019-01-08T08:30:11.744Z,2.57
2019-01-08T08:32:38.534Z,2.30
2019-01-08T08:35:08.578Z,2.80
2019-01-08T08:37:34.257Z,3.83
2019-01-08T08:40:01.113Z,2.30
2019-01-08T08:42:28.598Z,3.00
2019-01-08T08:44:55.769Z,3.20
2019-01-08T08:47:22.632Z,2.00
2019-01-08T08:49:49.595Z,2.73
2019-01-08T08:52:16.379Z,1.80
2019-01-08T08:54:43.284Z,2.20
2019-01-08T08:57:09.958Z,2.10
2019-01-08T08:59:37.264Z,2.57
2019-01-08T09:02:04.065Z,2.10
2019-01-08T09:04:30.795Z,2.00
2019-01-08T09:06:57.562Z,1.90
2019-01-08T09:09:26.961Z,1.93
2019-01-08T09:11:53.919Z,1.43
2019-01-08T09:14:20.790Z,2.00
2019-01-08T09:16:47.606Z,2.00
2019-01-08T09:19:14.583Z,1.80
2019-01-08T09:21:42.495Z,2.00
2019-01-08T09:24:09.654Z,1.93
2019-01-08T09:26:36.563Z,1.90
2019-01-08T09:29:05.694Z,2.10
2019-01-08T09:31:32.587Z,2.17
2019-01-08T09:33:59.535Z,2.70
2019-01-08T09:36:26.549Z,1.70
2019-01-08T09:38:53.565Z,1.90
2019-01-08T09:41:20.431Z,2.60
2019-01-08T09:43:47.177Z,2.27
2019-01-08T09:46:14.049Z,2.73
2019-01-08T09:48:40.924Z,1.47
2019-01-08T09:51:08.179Z,2.00
2019-01-08T09:53:35.661Z,2.10
2019-01-08T09:56:02.649Z,1.43
2019-01-08T09:58:29.939Z,2.10
2019-01-08T10:00:57.131Z,2.00
2019-01-08T10:03:24.351Z,1.73
2019-01-08T10:05:51.279Z,2.07
2019-01-08T10:08:18.669Z,1.70
2019-01-08T10:10:45.790Z,1.90
2019-01-08T10:13:12.598Z,1.60
2019-01-08T10:15:40.987Z,2.00
2019-01-08T10:18:10.223Z,1.50
2019-01-08T10:20:36.964Z,2.00
2019-01-08T10:23:09.999Z,1.77
2019-01-08T10:25:32.981Z,1.57
2019-01-08T10:27:59.923Z,1.80
2019-01-08T10:30:28.952Z,2.17
2019-01-08T10:32:55.852Z,2.17
2019-01-08T10:35:23.486Z,2.00
2019-01-08T10:37:50.361Z,2.40
2019-01-08T10:40:17.103Z,2.83
2019-01-08T10:42:44.274Z,2.60
2019-01-08T10:45:13.861Z,1.77
2019-01-08T10:47:40.704Z,1.83
2019-01-08T10:50:07.490Z,1.90
2019-01-08T10:52:34.570Z,2.33
2019-01-08T10:55:01.295Z,1.90
2019-01-08T10:57:31.126Z,2.10
2019-01-08T10:59:58.218Z,2.73
2019-01-08T11:02:29.236Z,3.07
2019-01-08T11:04:56.454Z,2.00
2019-01-08T11:07:23.495Z,2.40
2019-01-08T11:09:50.253Z,2.17
2019-01-08T11:12:17.096Z,3.33
2019-01-08T11:14:46.118Z,2.27
2019-01-08T11:17:14.598Z,2.03
2019-01-08T11:19:41.539Z,2.80
2019-01-08T11:22:08.438Z,2.37
2019-01-08T11:24:40.714Z,2.80
2019-01-08T11:27:10.752Z,2.30
2019-01-08T11:29:37.476Z,2.50
2019-01-08T11:32:05.639Z,2.63
2019-01-08T11:34:32.471Z,2.37
2019-01-08T11:37:04.100Z,2.20
2019-01-08T11:39:32.140Z,2.80
2019-01-08T11:42:02.114Z,2.67
2019-01-08T11:44:30.273Z,2.77
2019-01-08T11:46:57.748Z,2.83
2019-01-08T11:49:29.560Z,3.03
2019-01-08T11:51:56.422Z,2.60
2019-01-08T11:54:25.976Z,2.37
2019-01-08T11:56:52.800Z,2.70
2019-01-08T11:59:19.546Z,2.60
2019-01-08T12:01:57.544Z,2.57
2019-01-08T12:04:24.609Z,2.10
2019-01-08T12:06:51.636Z,2.57
2019-01-08T12:09:18.413Z,3.00
2019-01-08T12:11:50.226Z,3.57
2019-01-08T12:14:20.616Z,1.90
2019-01-08T12:16:47.378Z,2.60
2019-01-08T12:19:14.151Z,2.40
2019-01-08T12:21:41.001Z,2.83
2019-01-08T12:24:07.876Z,2.20
2019-01-08T12:26:36.547Z,1.60
2019-01-08T12:29:03.427Z,2.07
2019-01-08T12:31:33.671Z,1.97
2019-01-08T12:34:00.559Z,2.07
2019-01-08T12:36:27.621Z,1.90
2019-01-08T12:38:54.513Z,2.07
2019-01-08T12:41:25.468Z,2.70
2019-01-08T12:43:55.676Z,2.50
2019-01-08T12:46:25.613Z,1.97
2019-01-08T12:48:53.631Z,2.40
2019-01-08T12:51:22.710Z,2.33
2019-01-08T12:53:49.859Z,2.10
2019-01-08T12:56:16.963Z,1.70
2019-01-08T12:58:44.002Z,2.53
2019-01-08T13:01:10.758Z,2.10
2019-01-08T13:03:37.540Z,3.30
2019-01-08T13:06:05.819Z,1.80
2019-01-08T13:08:32.773Z,2.00
2019-01-08T13:10:59.489Z,2.30
2019-01-08T13:13:28.037Z,2.17
2019-01-08T13:15:54.915Z,1.70
2019-01-08T13:18:24.517Z,2.80
2019-01-08T13:20:51.378Z,1.80
2019-01-08T13:23:18.263Z,2.70
2019-01-08T13:25:45.184Z,1.90
2019-01-08T13:28:11.968Z,1.50
2019-01-08T13:30:38.700Z,2.03
2019-01-08T13:33:05.446Z,1.77
2019-01-08T13:35:32.273Z,2.17
2019-01-08T13:37:59.459Z,2.10
2019-01-08T13:40:26.235Z,2.47
2019-01-08T13:42:52.951Z,1.50
2019-01-08T13:45:19.758Z,1.63
2019-01-08T13:47:46.481Z,2.00
2019-01-08T13:50:14.892Z,2.37
2019-01-08T13:52:41.807Z,1.80
2019-01-08T13:55:08.711Z,2.43
2019-01-08T13:57:35.490Z,1.67
2019-01-08T14:00:03.671Z,2.40
2019-01-08T14:02:31.987Z,2.20
2019-01-08T14:04:59.582Z,2.30
2019-01-08T14:07:28.324Z,2.50
2019-01-08T14:09:57.033Z,1.73
2019-01-08T14:12:23.759Z,3.10
2019-01-08T14:14:50.589Z,1.63
2019-01-08T14:17:17.433Z,2.20
2019-01-08T14:19:44.495Z,2.67
2019-01-08T14:22:11.277Z,2.10
2019-01-08T14:24:38.140Z,2.73
2019-01-08T14:27:11.701Z,2.00
2019-01-08T14:29:34.498Z,1.40
2019-01-08T14:32:01.604Z,1.83
2019-01-08T14:34:28.756Z,1.80
2019-01-08T14:36:55.479Z,3.07
2019-01-08T14:39:22.337Z,2.00
2019-01-08T14:41:49.041Z,2.07
2019-01-08T14:44:15.845Z,1.80
2019-01-08T14:46:42.855Z,2.27
2019-01-08T14:49:12.025Z,2.70
2019-01-08T14:51:38.768Z,2.30
2019-01-08T14:54:05.655Z,2.00
2019-01-08T14:56:35.401Z,2.23
2019-01-08T14:59:02.124Z,1.73
2019-01-08T15:01:29.377Z,1.70
2019-01-08T15:03:56.384Z,2.30
2019-01-08T15:06:23.633Z,2.77
2019-01-08T15:08:50.662Z,1.90
2019-01-08T15:11:17.571Z,2.30
2019-01-08T15:13:44.461Z,2.13
2019-01-08T15:16:11.322Z,2.00
2019-01-08T15:18:38.552Z,1.57
2019-01-08T15:21:08.573Z,1.67
2019-01-08T15:23:35.818Z,2.33
2019-01-08T15:26:03.230Z,1.80
2019-01-08T15:28:30.314Z,1.30
2019-01-08T15:31:00.650Z,3.03
2019-01-08T15:33:27.406Z,2.60
2019-01-08T15:35:54.212Z,1.90
2019-01-08T15:38:21.095Z,1.50
2019-01-08T15:40:48.139Z,2.07
2019-01-08T15:43:14.964Z,1.70
2019-01-08T15:45:41.862Z,1.90
2019-01-08T15:48:08.985Z,1.63
2019-01-08T15:50:35.757Z,1.60
2019-01-08T15:53:02.758Z,2.90
2019-01-08T15:55:29.774Z,1.80
2019-01-08T15:57:56.768Z,2.10
2019-01-08T16:00:24.935Z,2.13
2019-01-08T16:02:51.698Z,1.30
2019-01-08T16:05:18.721Z,1.90
2019-01-08T16:07:45.768Z,1.87
2019-01-08T16:10:14.258Z,2.00
2019-01-08T16:12:41.565Z,2.80
2019-01-08T16:15:08.438Z,2.10
2019-01-08T16:17:35.352Z,2.50
2019-01-08T16:20:03.779Z,1.87
2019-01-08T16:22:30.760Z,2.17
2019-01-08T16:24:57.753Z,1.67
2019-01-08T16:27:24.805Z,2.00
2019-01-08T16:29:54.242Z,2.30
2019-01-08T16:32:22.929Z,1.90
2019-01-08T16:34:49.857Z,1.70
2019-01-08T16:37:16.940Z,1.80
2019-01-08T16:39:43.830Z,1.80
2019-01-08T16:42:11.189Z,2.20
2019-01-08T16:44:38.179Z,1.77
2019-01-08T16:47:05.391Z,1.57
2019-01-08T16:49:33.805Z,1.80
2019-01-08T16:52:01.039Z,1.90
2019-01-08T16:54:27.906Z,1.63
2019-01-08T16:56:54.868Z,1.47
2019-01-08T16:59:21.595Z,1.43
2019-01-08T17:01:48.393Z,1.90
2019-01-08T17:04:18.013Z,1.93
2019-01-08T17:06:44.960Z,1.73
2019-01-08T17:09:11.828Z,2.10
2019-01-08T17:11:41.601Z,1.50
2019-01-08T17:14:08.321Z,1.90
2019-01-08T17:16:35.070Z,1.63
2019-01-08T17:19:01.861Z,2.70
2019-01-08T17:21:28.657Z,1.70
2019-01-08T17:23:55.512Z,2.07
2019-01-08T17:26:22.422Z,2.33
2019-01-08T17:28:49.308Z,2.60
2019-01-08T17:31:16.105Z,2.50
2019-01-08T17:33:42.889Z,1.97
2019-01-08T17:36:09.908Z,2.40
2019-01-08T17:38:36.785Z,2.27
2019-01-08T17:41:03.776Z,2.67
2019-01-08T17:43:33.735Z,2.40
2019-01-08T17:45:59.684Z,2.20
2019-01-08T17:48:26.638Z,2.00
2019-01-08T17:50:53.433Z,2.00
2019-01-08T17:53:20.658Z,2.00
2019-01-08T17:55:47.760Z,2.33
2019-01-08T17:58:31.973Z,2.60
2019-01-08T18:01:03.873Z,2.17
2019-01-08T18:03:29.738Z,2.10
2019-01-08T18:05:56.539Z,2.30
2019-01-08T18:08:23.598Z,1.60
2019-01-08T18:10:50.482Z,1.83
2019-01-08T18:13:17.882Z,2.07
2019-01-08T18:15:44.621Z,2.67
2019-01-08T18:18:11.870Z,1.80
2019-01-08T18:20:38.633Z,1.87
2019-01-08T18:23:05.780Z,2.07
2019-01-08T18:25:32.549Z,1.60
2019-01-08T18:27:59.347Z,1.83
2019-01-08T18:30:26.322Z,1.67
2019-01-08T18:32:53.081Z,1.57
2019-01-08T18:35:19.891Z,2.03
2019-01-08T18:37:47.034Z,1.43
2019-01-08T18:40:14.225Z,1.40
2019-01-08T18:42:41.241Z,1.57
2019-01-08T18:45:08.126Z,1.80
2019-01-08T18:47:35.539Z,1.47
2019-01-08T18:50:02.473Z,1.30
2019-01-08T18:52:30.162Z,2.70
2019-01-08T18:54:56.963Z,2.07
2019-01-08T18:57:23.754Z,2.33
2019-01-08T18:59:50.649Z,1.80
2019-01-08T19:02:17.481Z,2.07
2019-01-08T19:04:44.334Z,1.80
2019-01-08T19:07:11.131Z,1.83
2019-01-08T19:09:40.889Z,1.70
2019-01-08T19:12:13.434Z,1.57
2019-01-08T19:14:41.159Z,1.40
2019-01-08T19:17:08.286Z,1.50
2019-01-08T19:19:35.212Z,1.70
2019-01-08T19:22:02.310Z,2.20
2019-01-08T19:24:29.081Z,1.67
2019-01-08T19:26:55.875Z,2.13
2019-01-08T19:29:24.062Z,2.63
2019-01-08T19:31:51.160Z,1.83
2019-01-08T19:34:18.024Z,1.93
2019-01-08T19:36:44.950Z,2.33
2019-01-08T19:39:14.740Z,2.30
2019-01-08T19:41:41.639Z,2.40
2019-01-08T19:44:09.523Z,2.20
2019-01-08T19:46:36.345Z,1.60
2019-01-08T19:49:03.105Z,1.80
2019-01-08T19:51:29.972Z,1.97
2019-01-08T19:53:56.813Z,2.10
2019-01-08T19:56:25.410Z,2.00
2019-01-08T19:58:52.696Z,1.53
2019-01-08T20:01:19.855Z,2.70
2019-01-08T20:03:46.640Z,2.00
2019-01-08T20:06:13.392Z,1.27
2019-01-08T20:08:48.476Z,1.90
2019-01-08T20:11:09.149Z,2.17
2019-01-08T20:13:36.017Z,2.33
2019-01-08T20:16:02.892Z,4.07
2019-01-08T20:18:29.999Z,2.07
2019-01-08T20:20:56.988Z,1.83
2019-01-08T20:23:24.523Z,2.90
2019-01-08T20:25:51.396Z,2.70
2019-01-08T20:28:18.688Z,2.50
2019-01-08T20:30:45.812Z,2.17
2019-01-08T20:33:12.760Z,2.10
2019-01-08T20:35:39.487Z,1.93
2019-01-08T20:38:06.346Z,1.90
2019-01-08T20:40:33.207Z,2.87
2019-01-08T20:43:00.215Z,1.70
2019-01-08T20:45:27.062Z,1.90
2019-01-08T20:47:57.129Z,1.70
2019-01-08T20:50:23.920Z,2.60
2019-01-08T20:52:50.858Z,1.73
2019-01-08T20:55:17.886Z,1.93
2019-01-08T20:57:44.657Z,1.47
2019-01-08T21:00:11.417Z,1.47
2019-01-08T21:02:38.346Z,1.90
2019-01-08T21:05:05.124Z,1.90
2019-01-08T21:07:32.297Z,1.70
2019-01-08T21:09:59.522Z,1.80
2019-01-08T21:12:26.551Z,1.53
2019-01-08T21:14:53.915Z,1.80
2019-01-08T21:17:20.676Z,2.00
2019-01-08T21:19:48.369Z,1.97
2019-01-08T21:22:15.320Z,2.33
2019-01-08T21:24:42.358Z,1.63
2019-01-08T21:27:09.571Z,1.80
2019-01-08T21:29:40.088Z,1.97
2019-01-08T21:32:06.902Z,1.50
2019-01-08T21:34:33.635Z,1.27
2019-01-08T21:37:00.381Z,1.60
2019-01-08T21:39:27.268Z,1.17
2019-01-08T21:41:54.152Z,1.67
2019-01-08T21:44:21.136Z,1.43
2019-01-08T21:46:48.556Z,1.63
2019-01-08T21:49:15.347Z,1.77
2019-01-08T21:51:42.203Z,1.97
2019-01-08T21:54:09.553Z,2.17
2019-01-08T21:56:36.377Z,2.37
2019-01-08T21:59:05.589Z,1.57
2019-01-08T22:01:32.624Z,1.80
2019-01-08T22:03:59.545Z,1.60
2019-01-08T22:06:26.297Z,1.60
2019-01-08T22:08:53.297Z,1.60
2019-01-08T22:11:20.252Z,2.60
2019-01-08T22:13:47.659Z,2.00
2019-01-08T22:16:15.275Z,2.17
2019-01-08T22:18:42.480Z,2.77
2019-01-08T22:21:10.038Z,2.23
2019-01-08T22:23:37.017Z,2.50
2019-01-08T22:26:03.848Z,2.30
2019-01-08T22:28:30.715Z,2.40
2019-01-08T22:30:57.708Z,2.53
2019-01-08T22:33:24.627Z,2.10
2019-01-08T22:35:52.879Z,2.20
2019-01-08T22:38:19.754Z,2.93
2019-01-08T22:40:47.433Z,2.27
2019-01-08T22:43:14.505Z,2.50
2019-01-08T22:45:41.428Z,2.60
2019-01-08T22:48:08.422Z,2.30
2019-01-08T22:50:35.264Z,2.07
2019-01-08T22:53:02.000Z,2.10
2019-01-08T22:55:29.433Z,1.70
2019-01-08T22:57:56.495Z,2.03
2019-01-08T23:00:41.863Z,1.73
2019-01-08T23:03:08.787Z,2.00
2019-01-08T23:05:36.178Z,2.00
2019-01-08T23:08:06.117Z,1.77
2019-01-08T23:10:33.096Z,2.17
2019-01-08T23:13:00.644Z,1.70
2019-01-08T23:15:27.621Z,2.20
2019-01-08T23:17:54.699Z,2.20
2019-01-08T23:20:21.768Z,1.70
2019-01-08T23:22:49.355Z,2.30
2019-01-08T23:25:16.148Z,2.40
2019-01-08T23:27:42.939Z,2.00
2019-01-08T23:30:10.004Z,1.60
2019-01-08T23:32:36.939Z,2.00
2019-01-08T23:35:04.145Z,1.40
2019-01-08T23:37:38.604Z,1.70
2019-01-08T23:40:06.111Z,2.27
2019-01-08T23:42:33.164Z,1.37
2019-01-08T23:45:00.301Z,1.70
2019-01-08T23:47:30.114Z,1.83
2019-01-08T23:49:57.207Z,1.70
2019-01-08T23:52:29.779Z,1.90
2019-01-08T23:54:56.942Z,1.70
2019-01-08T23:57:23.997Z,1.80
2019-01-08T23:59:51.883Z,2.03
